Time,TemperatureF,DewpointF,PressureIn,WindDirection,WindDirectionDegrees,WindSpeedMPH,WindSpeedGustMPH,Humidity,HourlyPrecipIn,Conditions,Clouds,dailyrainin,SolarRadiationWatts/m^2,SoftwareType,DateUTC
2013-07-07 00:04:00,77.2,73.4,29.85,East,100,0.0,0.0,88,0.00,,,0.00,0.0,meteobridge,2013-07-07 05:04:00,
2013-07-07 00:09:00,77.2,73.8,29.85,East,100,0.9,0.9,89,0.00,,,0.00,0.0,meteobridge,2013-07-07 05:09:00,
2013-07-07 00:14:00,77.0,73.2,29.85,East,100,0.9,0.9,88,0.00,,,0.00,0.0,meteobridge,2013-07-07 05:14:00,
2013-07-07 00:20:00,77.0,73.2,29.85,East,100,0.0,0.0,88,0.00,,,0.00,0.0,meteobridge,2013-07-07 05:20:00,
2013-07-07 00:25:00,76.8,73.0,29.85,East,100,0.0,0.0,88,0.00,,,0.00,0.0,meteobridge,2013-07-07 05:25:00,
2013-07-07 00:30:00,76.8,73.4,29.85,East,100,0.0,0.0,89,0.00,,,0.00,0.0,meteobridge,2013-07-07 05:30:00,
2013-07-07 00:36:00,76.8,73.4,29.85,East,100,0.0,2.0,89,0.00,,,0.00,0.0,meteobridge,2013-07-07 05:36:00,
2013-07-07 00:41:00,76.8,73.4,29.85,East,92,0.9,0.9,89,0.00,,,0.00,0.0,meteobridge,2013-07-07 05:41:00,
2013-07-07 00:46:00,76.8,73.4,29.85,East,92,0.0,0.9,89,0.00,,,0.00,0.0,meteobridge,2013-07-07 05:46:00,
2013-07-07 00:52:00,76.8,73.4,29.85,ESE,105,0.9,2.0,89,0.00,,,0.00,0.0,meteobridge,2013-07-07 05:52:00,
2013-07-07 00:57:00,77.0,73.6,29.85,ESE,105,0.0,0.0,89,0.00,,,0.00,0.0,meteobridge,2013-07-07 05:57:00,
2013-07-07 01:02:00,77.2,73.8,29.85,ESE,105,0.0,0.9,89,0.00,,,0.00,0.0,meteobridge,2013-07-07 06:02:00,
2013-07-07 01:07:00,77.2,73.8,29.85,ESE,105,0.0,0.0,89,0.00,,,0.00,0.0,meteobridge,2013-07-07 06:07:00,
2013-07-07 01:13:00,77.2,73.8,29.85,ESE,105,0.0,0.0,89,0.00,,,0.00,0.0,meteobridge,2013-07-07 06:13:00,
2013-07-07 01:14:00,77.2,73.8,29.85,ESE,105,0.9,2.0,89,0.00,,,0.00,0.0,meteobridge,2013-07-07 06:14:00,
2013-07-07 01:19:00,77.2,73.8,29.84,ESE,106,0.0,2.0,89,0.00,,,0.00,0.0,meteobridge,2013-07-07 06:19:00,
2013-07-07 01:24:00,77.0,73.6,29.84,ESE,107,2.0,2.0,89,0.00,,,0.00,0.0,meteobridge,2013-07-07 06:24:00,
2013-07-07 01:29:00,76.8,73.4,29.84,ESE,107,0.0,0.9,89,0.00,,,0.00,0.0,meteobridge,2013-07-07 06:29:00,
2013-07-07 01:35:00,76.8,73.4,29.84,ESE,116,0.0,0.9,89,0.00,,,0.00,0.0,meteobridge,2013-07-07 06:35:00,
2013-07-07 01:40:00,76.6,73.4,29.84,ESE,116,0.0,0.0,90,0.00,,,0.00,0.0,meteobridge,2013-07-07 06:40:00,
2013-07-07 01:46:00,76.6,73.4,29.83,ESE,116,0.0,0.0,90,0.00,,,0.00,0.0,meteobridge,2013-07-07 06:46:00,
2013-07-07 01:51:00,76.5,73.2,29.83,ESE,116,0.0,0.0,90,0.00,,,0.00,0.0,meteobridge,2013-07-07 06:51:00,
2013-07-07 01:56:00,76.3,73.0,29.83,ESE,116,0.0,0.0,90,0.00,,,0.00,0.0,meteobridge,2013-07-07 06:56:00,
2013-07-07 02:01:00,76.1,72.9,29.84,ESE,115,0.0,2.0,90,0.00,,,0.00,0.0,meteobridge,2013-07-07 07:01:00,
2013-07-07 02:06:00,75.9,72.9,29.84,ESE,115,0.0,0.9,90,0.00,,,0.00,0.0,meteobridge,2013-07-07 07:06:00,
2013-07-07 02:12:00,75.9,72.9,29.84,ESE,108,0.0,2.0,90,0.00,,,0.00,0.0,meteobridge,2013-07-07 07:12:00,
2013-07-07 02:17:00,75.9,73.0,29.84,East,100,0.0,0.9,91,0.00,,,0.00,0.0,meteobridge,2013-07-07 07:17:00,
2013-07-07 02:22:00,75.9,73.0,29.84,East,80,0.9,0.9,91,0.00,,,0.00,0.0,meteobridge,2013-07-07 07:22:00,
2013-07-07 02:27:00,75.9,73.0,29.84,East,80,0.9,0.9,91,0.00,,,0.00,0.0,meteobridge,2013-07-07 07:27:00,
2013-07-07 02:32:00,75.9,73.0,29.85,East,93,0.0,2.0,91,0.00,,,0.00,0.0,meteobridge,2013-07-07 07:32:00,
2013-07-07 02:37:00,75.9,73.0,29.85,East,93,0.0,0.0,91,0.00,,,0.00,0.0,meteobridge,2013-07-07 07:37:00,
2013-07-07 02:42:00,75.9,73.0,29.85,East,94,0.0,2.0,91,0.00,,,0.00,0.0,meteobridge,2013-07-07 07:42:00,
2013-07-07 02:48:00,75.9,73.0,29.85,East,94,0.0,0.0,91,0.00,,,0.00,0.0,meteobridge,2013-07-07 07:48:00,
2013-07-07 02:53:00,75.9,73.0,29.85,East,94,0.0,0.0,91,0.00,,,0.00,0.0,meteobridge,2013-07-07 07:53:00,
2013-07-07 02:58:00,75.9,73.0,29.85,East,95,0.0,0.0,91,0.00,,,0.00,0.0,meteobridge,2013-07-07 07:58:00,
2013-07-07 03:03:00,75.9,73.4,29.84,East,95,0.0,0.0,92,0.00,,,0.00,0.0,meteobridge,2013-07-07 08:03:00,
2013-07-07 03:08:00,75.9,73.4,29.84,East,95,0.0,0.9,92,0.00,,,0.00,0.0,meteobridge,2013-07-07 08:08:00,
2013-07-07 03:14:00,75.9,73.4,29.84,East,98,0.9,2.0,92,0.00,,,0.00,0.0,meteobridge,2013-07-07 08:14:00,
2013-07-07 03:19:00,75.9,73.4,29.84,East,98,0.0,0.0,92,0.00,,,0.00,0.0,meteobridge,2013-07-07 08:19:00,
2013-07-07 03:24:00,75.9,73.4,29.84,East,98,0.0,0.0,92,0.00,,,0.00,0.0,meteobridge,2013-07-07 08:24:00,
2013-07-07 03:29:00,75.7,73.2,29.84,East,98,0.0,0.0,92,0.00,,,0.00,0.0,meteobridge,2013-07-07 08:29:00,
2013-07-07 03:35:00,75.7,73.2,29.84,East,98,0.0,0.0,92,0.00,,,0.00,0.0,meteobridge,2013-07-07 08:35:00,
2013-07-07 03:40:00,75.7,73.2,29.84,East,98,0.0,0.0,92,0.00,,,0.00,0.0,meteobridge,2013-07-07 08:40:00,
2013-07-07 03:45:00,75.6,73.0,29.84,East,98,0.0,0.9,92,0.00,,,0.00,0.0,meteobridge,2013-07-07 08:45:00,
2013-07-07 03:50:00,75.6,73.0,29.84,East,98,0.0,0.0,92,0.00,,,0.00,0.0,meteobridge,2013-07-07 08:50:00,
2013-07-07 03:55:00,75.4,72.9,29.84,East,98,0.0,0.0,92,0.00,,,0.00,0.0,meteobridge,2013-07-07 08:55:00,
2013-07-07 04:00:00,75.4,72.9,29.85,East,98,0.0,0.0,92,0.00,,,0.00,0.0,meteobridge,2013-07-07 09:00:00,
2013-07-07 04:05:00,75.6,73.0,29.85,East,96,2.0,2.0,92,0.00,,,0.00,0.0,meteobridge,2013-07-07 09:05:00,
2013-07-07 04:10:00,75.6,73.4,29.85,East,88,2.0,2.9,93,0.00,,,0.00,0.0,meteobridge,2013-07-07 09:10:00,
2013-07-07 04:16:00,75.6,73.0,29.84,ENE,76,0.9,2.0,92,0.00,,,0.00,0.0,meteobridge,2013-07-07 09:16:00,
2013-07-07 04:21:00,75.6,73.4,29.84,ENE,76,0.9,0.9,93,0.00,,,0.00,0.0,meteobridge,2013-07-07 09:21:00,
2013-07-07 04:26:00,75.6,73.4,29.84,ENE,76,0.0,2.0,93,0.00,,,0.00,0.0,meteobridge,2013-07-07 09:26:00,
2013-07-07 04:31:00,75.7,73.6,29.84,ENE,76,0.9,2.0,93,0.00,,,0.00,0.0,meteobridge,2013-07-07 09:31:00,
2013-07-07 04:36:00,75.7,73.6,29.84,ENE,76,0.0,0.9,93,0.00,,,0.00,0.0,meteobridge,2013-07-07 09:36:00,
2013-07-07 04:41:00,75.9,73.8,29.84,SE,133,2.9,6.0,93,0.05,,,0.05,0.0,meteobridge,2013-07-07 09:41:00,
2013-07-07 04:46:00,76.3,74.5,29.84,ESE,117,0.0,0.9,94,0.15,,,0.15,0.0,meteobridge,2013-07-07 09:46:00,
2013-07-07 04:52:00,76.5,74.7,29.84,East,101,2.0,2.9,94,0.20,,,0.20,0.0,meteobridge,2013-07-07 09:52:00,
2013-07-07 04:57:00,76.6,74.8,29.84,ESE,103,0.0,2.0,94,0.21,,,0.21,0.0,meteobridge,2013-07-07 09:57:00,
2013-07-07 05:02:00,76.6,74.8,29.84,ESE,103,0.9,0.9,94,0.21,,,0.21,0.0,meteobridge,2013-07-07 10:02:00,
2013-07-07 05:07:00,76.8,75.0,29.84,East,98,0.9,0.9,94,0.21,,,0.21,0.0,meteobridge,2013-07-07 10:07:00,
2013-07-07 05:12:00,76.6,74.8,29.84,East,98,0.0,0.0,94,0.21,,,0.21,0.0,meteobridge,2013-07-07 10:12:00,
2013-07-07 05:17:00,76.6,74.8,29.85,East,98,0.0,0.0,94,0.21,,,0.21,0.0,meteobridge,2013-07-07 10:17:00,
2013-07-07 05:22:00,76.6,74.8,29.85,East,98,0.0,0.0,94,0.21,,,0.21,0.0,meteobridge,2013-07-07 10:22:00,
2013-07-07 05:27:00,76.6,74.8,29.85,East,98,0.0,0.9,94,0.21,,,0.21,0.0,meteobridge,2013-07-07 10:27:00,
2013-07-07 05:32:00,76.6,74.8,29.85,East,98,0.0,0.0,94,0.21,,,0.21,0.0,meteobridge,2013-07-07 10:32:00,
2013-07-07 05:37:00,76.5,74.7,29.85,East,98,0.0,0.0,94,0.21,,,0.21,0.0,meteobridge,2013-07-07 10:37:00,
2013-07-07 05:43:00,76.5,74.7,29.85,East,98,0.0,0.0,94,0.09,,,0.21,0.0,meteobridge,2013-07-07 10:43:00,
2013-07-07 05:48:00,76.5,74.7,29.85,East,98,0.0,0.9,94,0.05,,,0.21,0.0,meteobridge,2013-07-07 10:48:00,
2013-07-07 05:53:00,76.1,74.3,29.85,East,96,0.9,2.9,94,0.01,,,0.21,0.0,meteobridge,2013-07-07 10:53:00,
2013-07-07 05:58:00,75.9,74.1,29.85,East,96,0.9,0.9,94,0.00,,,0.21,0.0,meteobridge,2013-07-07 10:58:00,
2013-07-07 06:03:00,75.9,74.3,29.85,East,94,2.0,2.0,95,0.00,,,0.21,0.0,meteobridge,2013-07-07 11:03:00,
2013-07-07 06:08:00,75.7,74.1,29.85,East,94,0.0,0.9,95,0.00,,,0.21,0.0,meteobridge,2013-07-07 11:08:00,
2013-07-07 06:14:00,75.7,74.1,29.85,East,94,0.0,0.9,95,0.00,,,0.21,0.0,meteobridge,2013-07-07 11:14:00,
2013-07-07 06:19:00,75.7,74.1,29.86,East,94,0.0,0.9,95,0.00,,,0.21,0.0,meteobridge,2013-07-07 11:19:00,
2013-07-07 06:24:00,75.7,74.1,29.86,East,94,2.0,2.0,95,0.00,,,0.21,0.0,meteobridge,2013-07-07 11:24:00,
2013-07-07 06:29:00,75.7,74.1,29.86,East,94,0.9,0.9,95,0.00,,,0.21,0.0,meteobridge,2013-07-07 11:29:00,
2013-07-07 06:35:00,75.7,74.1,29.86,East,94,0.0,0.0,95,0.00,,,0.21,0.0,meteobridge,2013-07-07 11:35:00,
2013-07-07 06:40:00,75.7,74.1,29.86,East,94,0.0,0.0,95,0.00,,,0.21,0.0,meteobridge,2013-07-07 11:40:00,
2013-07-07 06:45:00,75.7,74.1,29.86,East,94,0.0,0.0,95,0.00,,,0.21,7.0,meteobridge,2013-07-07 11:45:00,
2013-07-07 06:50:00,75.7,74.1,29.86,East,94,0.0,0.0,95,0.00,,,0.21,11.0,meteobridge,2013-07-07 11:50:00,
2013-07-07 06:55:00,75.9,74.3,29.86,East,94,0.0,0.0,95,0.00,,,0.21,19.0,meteobridge,2013-07-07 11:55:00,
2013-07-07 07:00:00,75.9,74.3,29.86,East,94,0.0,0.0,95,0.00,,,0.21,32.0,meteobridge,2013-07-07 12:00:00,
2013-07-07 07:05:00,76.1,74.5,29.86,East,94,0.0,0.0,95,0.00,,,0.21,28.0,meteobridge,2013-07-07 12:05:00,
2013-07-07 07:11:00,76.1,74.5,29.86,East,94,0.0,0.0,95,0.00,,,0.21,26.0,meteobridge,2013-07-07 12:11:00,
2013-07-07 07:16:00,75.9,74.3,29.87,East,94,0.0,0.0,95,0.00,,,0.21,21.0,meteobridge,2013-07-07 12:16:00,
2013-07-07 07:22:00,76.1,74.8,29.87,East,94,0.0,0.0,96,0.00,,,0.21,23.0,meteobridge,2013-07-07 12:22:00,
2013-07-07 07:27:00,76.3,75.0,29.87,East,94,0.0,0.0,96,0.00,,,0.21,25.0,meteobridge,2013-07-07 12:27:00,
2013-07-07 07:32:00,76.3,75.0,29.88,East,94,0.0,2.0,96,0.00,,,0.21,28.0,meteobridge,2013-07-07 12:32:00,
2013-07-07 07:37:00,76.3,75.0,29.88,East,94,0.0,0.0,96,0.00,,,0.21,30.0,meteobridge,2013-07-07 12:37:00,
2013-07-07 07:42:00,76.3,75.0,29.88,East,94,0.0,2.0,96,0.00,,,0.21,37.0,meteobridge,2013-07-07 12:42:00,
2013-07-07 07:47:00,76.1,74.8,29.88,East,94,0.0,0.9,96,0.00,,,0.21,35.0,meteobridge,2013-07-07 12:47:00,
2013-07-07 07:52:00,76.3,75.0,29.88,East,94,2.0,2.0,96,0.00,,,0.21,51.0,meteobridge,2013-07-07 12:52:00,
2013-07-07 07:57:00,76.3,75.0,29.88,East,94,0.0,2.0,96,0.00,,,0.21,65.0,meteobridge,2013-07-07 12:57:00,
2013-07-07 08:02:00,76.5,75.2,29.89,East,94,0.0,0.9,96,0.00,,,0.21,60.0,meteobridge,2013-07-07 13:02:00,
2013-07-07 08:08:00,76.6,75.4,29.89,East,94,0.9,2.0,96,0.00,,,0.21,51.0,meteobridge,2013-07-07 13:08:00,
2013-07-07 08:13:00,76.8,75.6,29.89,East,93,0.9,2.0,96,0.00,,,0.21,67.0,meteobridge,2013-07-07 13:13:00,
2013-07-07 08:18:00,77.0,75.7,29.89,East,92,0.9,2.9,96,0.00,,,0.21,84.0,meteobridge,2013-07-07 13:18:00,
2013-07-07 08:23:00,77.2,75.9,29.89,East,90,0.0,0.9,96,0.00,,,0.21,105.0,meteobridge,2013-07-07 13:23:00,
2013-07-07 08:28:00,77.5,76.3,29.89,East,90,0.0,0.0,96,0.00,,,0.21,114.0,meteobridge,2013-07-07 13:28:00,
2013-07-07 08:33:00,77.7,76.5,29.89,East,90,0.0,0.0,96,0.00,,,0.21,169.0,meteobridge,2013-07-07 13:33:00,
2013-07-07 08:38:00,78.1,76.8,29.89,East,90,0.0,0.0,96,0.00,,,0.21,192.0,meteobridge,2013-07-07 13:38:00,
2013-07-07 08:43:00,78.4,77.2,29.89,East,90,0.0,0.0,96,0.00,,,0.21,267.0,meteobridge,2013-07-07 13:43:00,
2013-07-07 08:48:00,78.6,77.4,29.89,East,90,0.0,0.0,96,0.00,,,0.21,274.0,meteobridge,2013-07-07 13:48:00,
2013-07-07 08:54:00,79.3,78.1,29.89,East,90,0.0,0.0,96,0.00,,,0.21,255.0,meteobridge,2013-07-07 13:54:00,
2013-07-07 08:59:00,79.9,79.0,29.89,East,90,0.0,0.0,97,0.00,,,0.21,555.0,meteobridge,2013-07-07 13:59:00,
2013-07-07 09:04:00,79.9,78.3,29.90,East,90,0.0,0.9,95,0.00,,,0.21,216.0,meteobridge,2013-07-07 14:04:00,
2013-07-07 09:09:00,79.9,78.6,29.90,East,90,0.0,2.0,96,0.00,,,0.21,554.0,meteobridge,2013-07-07 14:09:00,
2013-07-07 09:14:00,80.4,78.8,29.90,East,100,0.0,0.9,95,0.00,,,0.21,165.0,meteobridge,2013-07-07 14:14:00,
2013-07-07 09:19:00,80.6,78.6,29.91,SE,128,0.0,2.0,94,0.00,,,0.21,125.0,meteobridge,2013-07-07 14:19:00,
2013-07-07 09:24:00,80.8,78.6,29.91,SE,128,0.0,0.0,93,0.00,,,0.21,98.0,meteobridge,2013-07-07 14:24:00,
2013-07-07 09:30:00,81.1,79.0,29.91,SE,128,0.0,0.0,93,0.00,,,0.21,130.0,meteobridge,2013-07-07 14:30:00,
2013-07-07 09:35:00,81.1,78.3,29.91,SE,128,0.0,0.0,91,0.00,,,0.21,109.0,meteobridge,2013-07-07 14:35:00,
2013-07-07 09:40:00,81.5,78.6,29.91,SE,128,0.0,0.0,91,0.00,,,0.21,183.0,meteobridge,2013-07-07 14:40:00,
2013-07-07 09:45:00,81.7,78.1,29.91,SE,128,0.0,0.0,89,0.00,,,0.21,162.0,meteobridge,2013-07-07 14:45:00,
2013-07-07 09:50:00,81.7,78.1,29.91,SE,128,0.0,0.0,89,0.00,,,0.21,209.0,meteobridge,2013-07-07 14:50:00,
2013-07-07 09:55:00,82.2,78.3,29.91,SSE,161,0.9,2.0,88,0.00,,,0.21,214.0,meteobridge,2013-07-07 14:55:00,
2013-07-07 10:00:00,82.8,78.1,29.91,WNW,287,0.9,4.0,86,0.00,,,0.21,216.0,meteobridge,2013-07-07 15:00:00,
2013-07-07 10:05:00,83.1,78.1,29.91,WNW,287,2.0,4.0,85,0.01,,,0.22,694.0,meteobridge,2013-07-07 15:05:00,
2013-07-07 10:10:00,84.0,79.0,29.91,WNW,290,0.0,4.0,85,0.01,,,0.22,740.0,meteobridge,2013-07-07 15:10:00,
2013-07-07 10:16:00,84.6,78.8,29.91,WNW,298,2.9,4.0,83,0.01,,,0.22,241.0,meteobridge,2013-07-07 15:16:00,
2013-07-07 10:21:00,84.2,77.7,29.91,WNW,291,2.9,4.9,81,0.01,,,0.22,176.0,meteobridge,2013-07-07 15:21:00,
2013-07-07 10:26:00,83.7,77.5,29.91,WNW,295,2.9,4.0,82,0.01,,,0.22,287.0,meteobridge,2013-07-07 15:26:00,
2013-07-07 10:31:00,83.7,76.8,29.90,WNW,302,2.0,4.0,80,0.01,,,0.22,190.0,meteobridge,2013-07-07 15:31:00,
2013-07-07 10:36:00,84.7,77.5,29.90,NW,309,4.0,4.0,79,0.01,,,0.22,717.0,meteobridge,2013-07-07 15:36:00,
2013-07-07 10:41:00,85.8,77.7,29.90,NNW,335,0.9,2.0,77,0.01,,,0.22,816.0,meteobridge,2013-07-07 15:41:00,
2013-07-07 10:46:00,85.8,76.1,29.91,SE,128,0.0,2.0,73,0.01,,,0.22,299.0,meteobridge,2013-07-07 15:46:00,
2013-07-07 10:51:00,86.7,77.0,29.91,SE,128,2.9,2.9,73,0.01,,,0.22,712.0,meteobridge,2013-07-07 15:51:00,
2013-07-07 10:56:00,87.1,77.0,29.91,East,99,0.9,2.9,72,0.01,,,0.22,294.0,meteobridge,2013-07-07 15:56:00,
2013-07-07 11:01:00,86.9,76.8,29.90,East,99,0.0,2.0,72,0.01,,,0.22,295.0,meteobridge,2013-07-07 16:01:00,
2013-07-07 11:06:00,87.3,77.9,29.90,East,92,0.0,2.0,74,0.00,,,0.22,997.0,meteobridge,2013-07-07 16:06:00,
2013-07-07 11:11:00,88.2,77.5,29.90,ENE,73,0.0,2.9,71,0.00,,,0.22,991.0,meteobridge,2013-07-07 16:11:00,
2013-07-07 11:16:00,89.2,77.7,29.89,NE,42,0.0,4.9,69,0.00,,,0.22,279.0,meteobridge,2013-07-07 16:16:00,
2013-07-07 11:21:00,88.5,76.1,29.89,ESE,115,0.0,2.0,67,0.00,,,0.22,366.0,meteobridge,2013-07-07 16:21:00,
2013-07-07 11:27:00,88.3,77.4,29.89,NNW,336,0.0,2.0,70,0.00,,,0.22,446.0,meteobridge,2013-07-07 16:27:00,
2013-07-07 11:32:00,88.9,77.9,29.89,NW,310,2.0,4.0,70,0.00,,,0.22,387.0,meteobridge,2013-07-07 16:32:00,
2013-07-07 11:37:00,88.0,77.0,29.89,WNW,299,4.9,6.0,70,0.00,,,0.22,385.0,meteobridge,2013-07-07 16:37:00,
2013-07-07 11:42:00,87.4,76.5,29.89,NW,309,4.0,6.0,70,0.00,,,0.22,288.0,meteobridge,2013-07-07 16:42:00,
2013-07-07 11:47:00,88.2,76.6,29.89,NW,308,4.9,6.0,69,0.00,,,0.22,991.0,meteobridge,2013-07-07 16:47:00,
2013-07-07 11:52:00,89.6,78.1,29.89,WSW,257,2.9,6.0,69,0.00,,,0.22,844.0,meteobridge,2013-07-07 16:52:00,
2013-07-07 11:57:00,89.6,77.2,29.89,WSW,239,0.9,2.9,67,0.00,,,0.22,283.0,meteobridge,2013-07-07 16:57:00,
2013-07-07 12:02:00,88.7,76.8,29.89,SW,217,0.0,4.0,68,0.00,,,0.22,278.0,meteobridge,2013-07-07 17:02:00,
2013-07-07 12:07:00,88.2,77.5,29.89,SSW,209,2.9,4.9,71,0.00,,,0.22,278.0,meteobridge,2013-07-07 17:07:00,
2013-07-07 12:12:00,88.0,76.5,29.89,SW,214,2.9,2.9,69,0.00,,,0.22,295.0,meteobridge,2013-07-07 17:12:00,
2013-07-07 12:17:00,88.5,77.0,29.89,SSW,212,2.9,4.0,69,0.00,,,0.22,297.0,meteobridge,2013-07-07 17:17:00,
2013-07-07 12:22:00,88.5,76.6,29.89,SW,234,0.9,2.9,68,0.00,,,0.22,239.0,meteobridge,2013-07-07 17:22:00,
2013-07-07 12:27:00,88.5,76.6,29.89,WNW,294,4.9,4.9,68,0.00,,,0.22,308.0,meteobridge,2013-07-07 17:27:00,
2013-07-07 12:32:00,88.9,76.5,29.89,WNW,289,2.0,2.0,67,0.00,,,0.22,406.0,meteobridge,2013-07-07 17:32:00,
2013-07-07 12:37:00,89.8,76.5,29.89,WNW,287,0.0,2.0,65,0.00,,,0.22,334.0,meteobridge,2013-07-07 17:37:00,
2013-07-07 12:42:00,89.6,76.6,29.89,SE,132,0.0,2.9,66,0.00,,,0.22,309.0,meteobridge,2013-07-07 17:42:00,
2013-07-07 12:47:00,89.8,75.6,29.89,SSE,157,4.0,11.0,63,0.00,,,0.22,355.0,meteobridge,2013-07-07 17:47:00,
2013-07-07 12:52:00,91.2,76.3,29.89,ENE,66,2.9,6.9,62,0.00,,,0.22,1000.0,meteobridge,2013-07-07 17:52:00,
2013-07-07 12:57:00,92.7,76.3,29.89,ESE,121,4.0,4.9,59,0.00,,,0.22,1097.0,meteobridge,2013-07-07 17:57:00,
2013-07-07 13:02:00,91.9,76.6,29.89,SE,134,6.0,8.1,61,0.00,,,0.22,343.0,meteobridge,2013-07-07 18:02:00,
2013-07-07 13:07:00,92.5,76.6,29.89,ESE,113,6.9,10.1,60,0.00,,,0.22,1183.0,meteobridge,2013-07-07 18:07:00,
2013-07-07 13:12:00,93.4,76.5,29.89,SE,131,4.9,11.0,58,0.00,,,0.22,1183.0,meteobridge,2013-07-07 18:12:00,
2013-07-07 13:17:00,92.1,75.7,29.89,East,82,2.9,8.9,59,0.00,,,0.22,265.0,meteobridge,2013-07-07 18:17:00,
2013-07-07 13:23:00,91.0,76.3,29.89,SE,144,6.0,6.0,62,0.00,,,0.22,311.0,meteobridge,2013-07-07 18:23:00,
2013-07-07 13:28:00,91.2,75.9,29.89,NE,52,4.0,4.9,61,0.00,,,0.22,352.0,meteobridge,2013-07-07 18:28:00,
2013-07-07 13:33:00,91.9,76.6,29.88,ESE,103,2.0,8.9,61,0.00,,,0.22,1121.0,meteobridge,2013-07-07 18:33:00,
2013-07-07 13:38:00,93.7,76.6,29.88,SSE,167,6.0,6.9,58,0.00,,,0.22,1130.0,meteobridge,2013-07-07 18:38:00,
2013-07-07 13:43:00,93.6,76.1,29.88,ESE,118,2.9,6.9,57,0.00,,,0.22,1181.0,meteobridge,2013-07-07 18:43:00,
2013-07-07 13:48:00,92.8,75.4,29.88,SSE,161,8.1,10.1,57,0.00,,,0.22,271.0,meteobridge,2013-07-07 18:48:00,
2013-07-07 13:53:00,92.5,76.1,29.88,East,98,2.9,8.1,59,0.00,,,0.22,288.0,meteobridge,2013-07-07 18:53:00,
2013-07-07 13:58:00,91.9,74.5,29.88,East,85,0.9,4.9,57,0.00,,,0.22,253.0,meteobridge,2013-07-07 18:58:00,
2013-07-07 14:03:00,93.2,74.7,29.88,East,99,2.0,4.9,55,0.00,,,0.22,1114.0,meteobridge,2013-07-07 19:03:00,
2013-07-07 14:08:00,94.6,75.4,29.88,East,92,6.9,6.9,54,0.00,,,0.22,1248.0,meteobridge,2013-07-07 19:08:00,
2013-07-07 14:13:00,93.6,73.8,29.88,ESE,113,2.0,4.9,53,0.00,,,0.22,294.0,meteobridge,2013-07-07 19:13:00,
2013-07-07 14:18:00,93.0,73.9,29.88,ESE,119,10.1,10.1,54,0.00,,,0.22,432.0,meteobridge,2013-07-07 19:18:00,
2013-07-07 14:23:00,93.7,73.4,29.88,East,89,2.0,6.0,52,0.00,,,0.22,1262.0,meteobridge,2013-07-07 19:23:00,
2013-07-07 14:28:00,93.0,75.6,29.88,East,98,2.9,13.0,57,0.00,,,0.22,297.0,meteobridge,2013-07-07 19:28:00,
2013-07-07 14:33:00,91.0,74.7,29.87,ESE,112,2.9,11.0,59,0.00,,,0.22,345.0,meteobridge,2013-07-07 19:33:00,
2013-07-07 14:38:00,91.9,75.0,29.87,SE,126,4.0,10.1,58,0.00,,,0.22,1076.0,meteobridge,2013-07-07 19:38:00,
2013-07-07 14:43:00,94.1,75.4,29.87,SSE,149,4.0,8.9,55,0.00,,,0.22,1071.0,meteobridge,2013-07-07 19:43:00,
2013-07-07 14:48:00,94.8,75.6,29.87,ESE,118,6.9,16.1,54,0.00,,,0.22,1093.0,meteobridge,2013-07-07 19:48:00,
2013-07-07 14:53:00,94.8,76.1,29.87,SSE,158,4.9,8.9,55,0.00,,,0.22,1062.0,meteobridge,2013-07-07 19:53:00,
2013-07-07 14:58:00,92.8,74.8,29.87,SSE,167,17.0,19.0,56,0.00,,,0.22,216.0,meteobridge,2013-07-07 19:58:00,
2013-07-07 15:03:00,87.8,75.0,29.88,SSE,158,14.1,16.1,66,0.00,,,0.22,221.0,meteobridge,2013-07-07 20:03:00,
2013-07-07 15:08:00,86.4,74.5,29.88,South,178,10.1,14.1,68,0.00,,,0.22,255.0,meteobridge,2013-07-07 20:08:00,
2013-07-07 15:13:00,86.2,74.8,29.88,South,170,11.0,14.1,69,0.00,,,0.22,352.0,meteobridge,2013-07-07 20:13:00,
2013-07-07 15:18:00,86.4,75.0,29.88,South,179,6.0,13.0,69,0.00,,,0.22,422.0,meteobridge,2013-07-07 20:18:00,
2013-07-07 15:23:00,87.1,76.5,29.88,SSE,162,11.0,11.0,71,0.00,,,0.22,601.0,meteobridge,2013-07-07 20:23:00,
2013-07-07 15:29:00,88.7,77.2,29.88,SE,127,6.9,13.0,69,0.00,,,0.22,1071.0,meteobridge,2013-07-07 20:29:00,
2013-07-07 15:34:00,90.1,77.2,29.87,SSE,149,10.1,11.0,66,0.00,,,0.22,1021.0,meteobridge,2013-07-07 20:34:00,
2013-07-07 15:39:00,90.9,77.5,29.87,South,175,12.1,14.1,65,0.00,,,0.22,986.0,meteobridge,2013-07-07 20:39:00,
2013-07-07 15:44:00,90.7,76.3,29.87,SE,146,14.1,15.0,63,0.00,,,0.22,1018.0,meteobridge,2013-07-07 20:44:00,
2013-07-07 15:49:00,90.1,76.3,29.88,SSE,154,6.9,13.0,64,0.00,,,0.22,388.0,meteobridge,2013-07-07 20:49:00,
2013-07-07 15:54:00,89.4,76.1,29.88,South,188,6.9,17.9,65,0.00,,,0.22,267.0,meteobridge,2013-07-07 20:54:00,
2013-07-07 15:59:00,88.5,75.7,29.88,SSE,165,10.1,14.1,66,0.00,,,0.22,223.0,meteobridge,2013-07-07 20:59:00,
2013-07-07 16:04:00,88.3,75.9,29.88,SSW,202,6.9,14.1,67,0.00,,,0.22,229.0,meteobridge,2013-07-07 21:04:00,
2013-07-07 16:09:00,88.0,76.5,29.88,SSE,156,11.0,14.1,69,0.00,,,0.22,229.0,meteobridge,2013-07-07 21:09:00,
2013-07-07 16:14:00,87.6,76.1,29.88,SSE,150,8.9,16.1,69,0.00,,,0.22,213.0,meteobridge,2013-07-07 21:14:00,
2013-07-07 16:19:00,87.1,76.5,29.88,SSE,167,8.9,19.0,71,0.00,,,0.22,178.0,meteobridge,2013-07-07 21:19:00,
2013-07-07 16:24:00,86.2,77.4,29.88,SSE,155,11.0,21.0,75,0.00,,,0.22,179.0,meteobridge,2013-07-07 21:24:00,
2013-07-07 16:29:00,85.5,76.6,29.88,SE,146,17.0,19.9,75,0.00,,,0.22,165.0,meteobridge,2013-07-07 21:29:00,
2013-07-07 16:34:00,84.7,76.6,29.88,SSE,167,10.1,19.0,77,0.00,,,0.22,171.0,meteobridge,2013-07-07 21:34:00,
2013-07-07 16:39:00,84.6,76.5,29.88,SSE,150,19.0,19.0,77,0.00,,,0.22,183.0,meteobridge,2013-07-07 21:39:00,
2013-07-07 16:44:00,84.7,76.3,29.88,SE,145,10.1,16.1,76,0.00,,,0.22,195.0,meteobridge,2013-07-07 21:44:00,
2013-07-07 16:49:00,85.3,76.8,29.88,SE,134,12.1,21.0,76,0.00,,,0.22,360.0,meteobridge,2013-07-07 21:49:00,
2013-07-07 16:54:00,86.4,76.6,29.88,South,173,11.0,19.0,73,0.00,,,0.22,406.0,meteobridge,2013-07-07 21:54:00,
2013-07-07 16:59:00,86.4,76.3,29.88,SSE,153,12.1,17.0,72,0.00,,,0.22,315.0,meteobridge,2013-07-07 21:59:00,
2013-07-07 17:04:00,87.6,77.0,29.88,SSE,156,11.0,17.9,71,0.00,,,0.22,666.0,meteobridge,2013-07-07 22:04:00,
2013-07-07 17:09:00,88.2,77.2,29.88,SE,143,17.0,23.0,70,0.00,,,0.22,680.0,meteobridge,2013-07-07 22:09:00,
2013-07-07 17:14:00,86.7,76.6,29.88,SSE,149,16.1,19.0,72,0.00,,,0.22,578.0,meteobridge,2013-07-07 22:14:00,
2013-07-07 17:19:00,87.3,77.2,29.88,SSE,167,8.9,21.0,72,0.00,,,0.22,596.0,meteobridge,2013-07-07 22:19:00,
2013-07-07 17:24:00,87.1,77.0,29.88,SE,136,14.1,19.0,72,0.00,,,0.22,237.0,meteobridge,2013-07-07 22:24:00,
2013-07-07 17:29:00,87.1,77.0,29.88,SE,132,13.0,19.9,72,0.00,,,0.22,362.0,meteobridge,2013-07-07 22:29:00,
2013-07-07 17:34:00,87.4,76.8,29.89,SSE,163,11.0,17.9,71,0.00,,,0.22,624.0,meteobridge,2013-07-07 22:34:00,
2013-07-07 17:39:00,87.4,76.5,29.89,SE,140,16.1,21.0,70,0.00,,,0.22,643.0,meteobridge,2013-07-07 22:39:00,
2013-07-07 17:44:00,88.0,76.5,29.89,SSE,157,14.1,19.9,69,0.00,,,0.22,649.0,meteobridge,2013-07-07 22:44:00,
2013-07-07 17:49:00,87.6,76.1,29.89,SSE,148,19.9,21.9,69,0.00,,,0.22,570.0,meteobridge,2013-07-07 22:49:00,
2013-07-07 17:54:00,86.5,75.2,29.89,SSE,166,14.1,16.1,69,0.00,,,0.22,162.0,meteobridge,2013-07-07 22:54:00,
2013-07-07 17:59:00,85.5,75.0,29.89,SE,134,16.1,17.0,71,0.00,,,0.22,258.0,meteobridge,2013-07-07 22:59:00,
2013-07-07 18:04:00,86.5,75.6,29.89,South,179,11.0,15.0,70,0.00,,,0.22,255.0,meteobridge,2013-07-07 23:04:00,
2013-07-07 18:09:00,85.8,74.8,29.89,SSE,155,14.1,21.0,70,0.00,,,0.22,225.0,meteobridge,2013-07-07 23:09:00,
2013-07-07 18:14:00,85.5,75.0,29.89,SSE,160,14.1,21.0,71,0.00,,,0.22,185.0,meteobridge,2013-07-07 23:14:00,
2013-07-07 18:19:00,84.9,74.8,29.90,SSE,152,16.1,17.9,72,0.00,,,0.22,171.0,meteobridge,2013-07-07 23:19:00,
2013-07-07 18:24:00,84.7,75.2,29.90,SSE,163,16.1,16.1,73,0.00,,,0.22,163.0,meteobridge,2013-07-07 23:24:00,
2013-07-07 18:29:00,84.6,75.4,29.90,SE,143,14.1,17.0,74,0.00,,,0.22,163.0,meteobridge,2013-07-07 23:29:00,
2013-07-07 18:34:00,84.9,75.7,29.90,SE,142,15.0,15.0,74,0.00,,,0.22,385.0,meteobridge,2013-07-07 23:34:00,
2013-07-07 18:39:00,85.8,76.1,29.90,SSE,160,15.0,17.9,73,0.00,,,0.22,334.0,meteobridge,2013-07-07 23:39:00,
2013-07-07 18:44:00,85.6,75.9,29.90,SSE,167,8.1,16.1,73,0.00,,,0.22,348.0,meteobridge,2013-07-07 23:44:00,
2013-07-07 18:49:00,85.8,75.4,29.90,SSE,150,15.0,17.9,71,0.00,,,0.22,301.0,meteobridge,2013-07-07 23:49:00,
2013-07-07 18:54:00,85.5,75.4,29.90,SSE,163,12.1,14.1,72,0.00,,,0.22,229.0,meteobridge,2013-07-07 23:54:00,
2013-07-07 18:59:00,84.7,75.6,29.90,SE,144,12.1,13.0,74,0.00,,,0.22,160.0,meteobridge,2013-07-07 23:59:00,
2013-07-07 19:04:00,84.6,75.7,29.90,SSE,148,6.0,14.1,75,0.00,,,0.22,135.0,meteobridge,2013-07-08 00:04:00,
2013-07-07 19:09:00,84.4,75.6,29.90,SSE,154,12.1,15.0,75,0.00,,,0.22,88.0,meteobridge,2013-07-08 00:09:00,
2013-07-07 19:14:00,83.8,75.0,29.90,SSE,148,16.1,19.0,75,0.00,,,0.22,60.0,meteobridge,2013-07-08 00:14:00,
2013-07-07 19:19:00,83.1,75.6,29.91,SSE,147,13.0,17.9,78,0.00,,,0.22,60.0,meteobridge,2013-07-08 00:19:00,
2013-07-07 19:24:00,82.8,74.8,29.91,SSE,150,8.9,16.1,77,0.00,,,0.22,58.0,meteobridge,2013-07-08 00:24:00,
2013-07-07 19:29:00,82.8,74.8,29.91,SSE,168,8.9,14.1,77,0.00,,,0.22,53.0,meteobridge,2013-07-08 00:29:00,
2013-07-07 19:34:00,82.8,74.8,29.91,South,174,6.9,14.1,77,0.00,,,0.22,47.0,meteobridge,2013-07-08 00:34:00,
2013-07-07 19:39:00,82.6,75.0,29.91,SE,144,11.0,14.1,78,0.00,,,0.22,42.0,meteobridge,2013-07-08 00:39:00,
2013-07-07 19:44:00,82.4,75.6,29.91,South,176,10.1,12.1,80,0.00,,,0.22,40.0,meteobridge,2013-07-08 00:44:00,
2013-07-07 19:49:00,82.2,75.4,29.91,SSE,163,8.1,12.1,80,0.00,,,0.22,37.0,meteobridge,2013-07-08 00:49:00,
2013-07-07 19:54:00,82.0,75.2,29.91,SSE,157,6.9,11.0,80,0.00,,,0.22,33.0,meteobridge,2013-07-08 00:54:00,
2013-07-07 19:59:00,81.9,75.0,29.91,SSE,165,6.9,12.1,80,0.00,,,0.22,28.0,meteobridge,2013-07-08 00:59:00,
2013-07-07 20:05:00,81.9,75.0,29.89,SSE,155,6.0,11.0,80,0.00,,,0.22,21.0,meteobridge,2013-07-08 01:05:00,
2013-07-07 20:10:00,81.7,75.2,29.89,SSE,162,8.1,8.9,81,0.00,,,0.22,16.0,meteobridge,2013-07-08 01:10:00,
2013-07-07 20:15:00,81.7,75.2,29.89,SSE,165,6.9,10.1,81,0.00,,,0.22,11.0,meteobridge,2013-07-08 01:15:00,
2013-07-07 20:20:00,81.5,75.0,29.89,SSE,168,6.9,10.1,81,0.00,,,0.22,7.0,meteobridge,2013-07-08 01:20:00,
2013-07-07 20:25:00,81.3,75.4,29.89,SSE,161,4.9,6.9,82,0.00,,,0.22,0.0,meteobridge,2013-07-08 01:25:00,
2013-07-07 20:30:00,81.1,75.2,29.90,SSE,159,4.0,6.9,82,0.00,,,0.22,0.0,meteobridge,2013-07-08 01:30:00,
2013-07-07 20:35:00,81.1,75.6,29.90,SSE,161,2.9,6.9,83,0.00,,,0.22,0.0,meteobridge,2013-07-08 01:35:00,
2013-07-07 20:40:00,81.0,75.4,29.90,SSE,157,4.0,4.9,83,0.00,,,0.22,0.0,meteobridge,2013-07-08 01:40:00,
2013-07-07 20:45:00,81.0,75.4,29.89,SSE,155,4.9,6.0,83,0.00,,,0.22,0.0,meteobridge,2013-07-08 01:45:00,
2013-07-07 20:50:00,80.8,75.2,29.89,SSE,162,2.9,4.9,83,0.00,,,0.22,0.0,meteobridge,2013-07-08 01:50:00,
2013-07-07 20:55:00,80.8,75.2,29.89,SSE,159,2.9,6.9,83,0.00,,,0.22,0.0,meteobridge,2013-07-08 01:55:00,
2013-07-07 21:00:00,80.6,75.4,29.90,SSE,155,2.9,6.0,84,0.00,,,0.22,0.0,meteobridge,2013-07-08 02:00:00,
2013-07-07 21:05:00,80.4,75.2,29.90,SSE,152,4.0,6.9,84,0.00,,,0.22,0.0,meteobridge,2013-07-08 02:05:00,
2013-07-07 21:10:00,80.4,75.2,29.90,SSE,155,4.9,6.9,84,0.00,,,0.22,0.0,meteobridge,2013-07-08 02:10:00,
2013-07-07 21:15:00,80.4,75.2,29.91,SSE,150,4.9,6.0,84,0.00,,,0.22,0.0,meteobridge,2013-07-08 02:15:00,
2013-07-07 21:20:00,80.4,75.2,29.91,SE,144,0.9,4.9,84,0.00,,,0.22,0.0,meteobridge,2013-07-08 02:20:00,
2013-07-07 21:25:00,80.4,75.2,29.91,SSE,156,4.9,6.0,84,0.00,,,0.22,0.0,meteobridge,2013-07-08 02:25:00,
2013-07-07 21:31:00,80.4,75.2,29.89,SSE,150,2.9,4.0,84,0.00,,,0.22,0.0,meteobridge,2013-07-08 02:31:00,
2013-07-07 21:36:00,80.2,75.4,29.89,SSE,148,2.9,4.0,85,0.00,,,0.22,0.0,meteobridge,2013-07-08 02:36:00,
2013-07-07 21:40:00,80.2,75.4,29.89,SE,139,2.0,2.9,85,0.00,,,0.22,0.0,meteobridge,2013-07-08 02:40:00,
2013-07-07 21:45:00,80.1,75.2,29.90,SE,132,0.0,2.0,85,0.00,,,0.22,0.0,meteobridge,2013-07-08 02:45:00,
2013-07-07 21:50:00,80.1,75.6,29.90,SE,132,0.0,0.9,86,0.00,,,0.22,0.0,meteobridge,2013-07-08 02:50:00,
2013-07-07 21:56:00,79.9,75.4,29.90,SE,132,0.0,0.0,86,0.00,,,0.22,0.0,meteobridge,2013-07-08 02:56:00,
2013-07-07 22:01:00,79.9,75.4,29.91,SE,132,0.0,0.0,86,0.00,,,0.22,0.0,meteobridge,2013-07-08 03:01:00,
2013-07-07 22:06:00,79.5,75.0,29.91,SE,132,0.0,0.0,86,0.00,,,0.22,0.0,meteobridge,2013-07-08 03:06:00,
2013-07-07 22:12:00,79.5,75.4,29.91,SE,132,0.0,0.0,87,0.00,,,0.22,0.0,meteobridge,2013-07-08 03:12:00,
2013-07-07 22:17:00,79.3,75.2,29.91,SE,132,0.0,0.0,87,0.00,,,0.22,0.0,meteobridge,2013-07-08 03:17:00,
2013-07-07 22:22:00,79.3,75.2,29.91,SE,132,0.0,2.0,87,0.00,,,0.22,0.0,meteobridge,2013-07-08 03:22:00,
2013-07-07 22:27:00,79.3,75.6,29.91,SE,138,0.0,2.0,88,0.00,,,0.22,0.0,meteobridge,2013-07-08 03:27:00,
2013-07-07 22:32:00,79.2,75.4,29.92,SE,138,0.0,0.0,88,0.00,,,0.22,0.0,meteobridge,2013-07-08 03:32:00,
2013-07-07 22:37:00,79.2,75.4,29.92,SE,137,0.0,0.9,88,0.00,,,0.22,0.0,meteobridge,2013-07-08 03:37:00,
2013-07-07 22:42:00,79.2,75.4,29.92,SE,138,0.0,2.0,88,0.00,,,0.22,0.0,meteobridge,2013-07-08 03:42:00,
2013-07-07 22:47:00,79.0,75.2,29.92,SE,134,0.0,0.9,88,0.00,,,0.22,0.0,meteobridge,2013-07-08 03:47:00,
2013-07-07 22:52:00,79.0,75.2,29.92,SE,134,0.0,0.9,88,0.00,,,0.22,0.0,meteobridge,2013-07-08 03:52:00,
2013-07-07 22:57:00,78.8,75.0,29.92,SE,133,0.0,0.9,88,0.00,,,0.22,0.0,meteobridge,2013-07-08 03:57:00,
2013-07-07 23:01:00,78.6,74.8,29.93,SE,133,0.0,0.9,88,0.00,,,0.22,0.0,meteobridge,2013-07-08 04:01:00,
2013-07-07 23:02:00,78.6,74.8,29.93,SE,133,0.0,0.0,88,0.00,,,0.22,0.0,meteobridge,2013-07-08 04:02:00,
2013-07-07 23:07:00,78.6,75.0,29.93,SE,132,0.9,0.9,89,0.00,,,0.22,0.0,meteobridge,2013-07-08 04:07:00,
2013-07-07 23:12:00,78.6,75.0,29.93,SE,128,0.0,0.9,89,0.00,,,0.22,0.0,meteobridge,2013-07-08 04:12:00,
2013-07-07 23:17:00,78.8,75.2,29.94,SE,136,0.9,0.9,89,0.00,,,0.22,0.0,meteobridge,2013-07-08 04:17:00,
2013-07-07 23:22:00,78.8,75.0,29.94,SE,138,0.0,0.0,88,0.00,,,0.22,0.0,meteobridge,2013-07-08 04:22:00,
2013-07-07 23:27:00,79.0,75.2,29.94,SE,139,0.0,0.9,88,0.00,,,0.22,0.0,meteobridge,2013-07-08 04:27:00,
2013-07-07 23:32:00,79.0,75.2,29.94,SE,139,0.9,0.9,88,0.00,,,0.22,0.0,meteobridge,2013-07-08 04:32:00,
2013-07-07 23:37:00,79.0,75.2,29.94,SSE,155,2.9,4.0,88,0.00,,,0.22,0.0,meteobridge,2013-07-08 04:37:00,
2013-07-07 23:42:00,79.0,75.4,29.94,SE,139,2.0,4.0,89,0.02,,,0.24,0.0,meteobridge,2013-07-08 04:42:00,
2013-07-07 23:47:00,78.4,74.8,29.94,SE,135,0.0,2.0,89,0.05,,,0.27,0.0,meteobridge,2013-07-08 04:47:00,
2013-07-07 23:53:00,78.3,75.0,29.94,SE,133,0.0,0.0,90,0.08,,,0.30,0.0,meteobridge,2013-07-08 04:53:00,
2013-07-07 23:58:00,78.3,75.4,29.94,SE,133,0.0,0.0,91,0.08,,,0.30,0.0,meteobridge,2013-07-08 04:58:00,